Impacts TAF Board
For situational awareness. Not to be used for flight planning purposes.
IDs:

KCNU - Chanute/Johnson Arpt, KS, US

Issued at 1735 UTC 02 Oct 2022
Updated at 1937 UTC 02 Oct 2022
Potential Impact None Slight Moderate High
Time<<03/08Z 03/09Z 03/10Z 03/11Z 03/12Z 03/13Z 03/14Z 03/15Z 03/16Z 03/17Z 03/18Z 03/19Z 03/20Z>>
Type PRVL PRVL PRVL PRVL PRVL PRVL PRVL PRVL PRVL PRVL
VIS >6 >6 >6 >6 >6 >6 >6 >6 >6 >6
CIG -- -- -- -- -- -- -- -- -- --
Cover SKC SKC SKC SKC SKC SKC SKC SKC SKC SKC
FltCat VFR VFR VFR VFR VFR VFR VFR VFR VFR VFR
WX -- -- -- -- -- -- -- -- -- --
WDir 120 120 120 120 120 120 120 170 170 170
WSpd 7 7 7 7 7 7 7 6 6 6
WGst -- -- -- -- -- -- -- -- -- --
WSHgt -- -- -- -- -- -- -- -- -- --
WSDir -- -- -- -- -- -- -- -- -- --
WSSpd -- -- -- -- -- -- -- -- -- --
Raw TAF
KCNU 021735Z 0218/0318 12007KT P6SM SKC
  FM031500 17006KT P6SM SKC


METAR Board
Radar Display
Forecast Discussion
For situational awareness. Not to be used for flight planning purposes.